sensor_id;sensor_type;location;lat;lon;timestamp;pressure;altitude;pressure_sealevel;temperature;humidity
6899;BME280;3488;42.616;23.350;2023-04-07T00:00:36;62175.84;;;1.71;57.16
6899;BME280;3488;42.616;23.350;2023-04-07T00:03:03;62171.22;;;1.66;57.51
6899;BME280;3488;42.616;23.350;2023-04-07T00:05:31;62176.84;;;1.72;57.76
6899;BME280;3488;42.616;23.350;2023-04-07T00:07:58;62172.34;;;1.72;57.20
6899;BME280;3488;42.616;23.350;2023-04-07T00:10:27;62164.09;;;1.62;57.42
6899;BME280;3488;42.616;23.350;2023-04-07T00:12:54;62171.31;;;1.71;57.30
6899;BME280;3488;42.616;23.350;2023-04-07T00:15:21;62158.97;;;1.57;57.25
6899;BME280;3488;42.616;23.350;2023-04-07T00:17:48;62170.22;;;1.68;57.26
6899;BME280;3488;42.616;23.350;2023-04-07T00:20:15;62155.94;;;1.56;56.96
6899;BME280;3488;42.616;23.350;2023-04-07T00:22:42;62163.53;;;1.59;56.92
6899;BME280;3488;42.616;23.350;2023-04-07T00:25:09;62168.13;;;1.63;57.15
6899;BME280;3488;42.616;23.350;2023-04-07T00:27:37;62169.16;;;1.64;57.08
6899;BME280;3488;42.616;23.350;2023-04-07T00:30:05;62167.78;;;1.70;56.63
6899;BME280;3488;42.616;23.350;2023-04-07T00:32:33;62173.25;;;1.68;56.21
6899;BME280;3488;42.616;23.350;2023-04-07T00:35:00;62166.59;;;1.62;56.57
6899;BME280;3488;42.616;23.350;2023-04-07T00:37:27;62167.16;;;1.65;56.28
6899;BME280;3488;42.616;23.350;2023-04-07T00:39:55;62183.94;;;1.74;56.09
6899;BME280;3488;42.616;23.350;2023-04-07T00:42:23;62173.25;;;1.68;56.55
6899;BME280;3488;42.616;23.350;2023-04-07T00:44:52;62160.09;;;1.63;56.89
6899;BME280;3488;42.616;23.350;2023-04-07T00:47:19;62170.81;;;1.71;56.75
6899;BME280;3488;42.616;23.350;2023-04-07T00:49:46;62163.03;;;1.61;56.43
6899;BME280;3488;42.616;23.350;2023-04-07T00:52:13;62156.91;;;1.55;56.71
6899;BME280;3488;42.616;23.350;2023-04-07T00:54:41;62164.09;;;1.62;56.21
6899;BME280;3488;42.616;23.350;2023-04-07T00:57:08;62165.97;;;1.56;56.05
6899;BME280;3488;42.616;23.350;2023-04-07T00:59:35;62170.19;;;1.65;55.71
6899;BME280;3488;42.616;23.350;2023-04-07T01:02:09;62152.78;;;1.51;56.00
6899;BME280;3488;42.616;23.350;2023-04-07T01:04:43;62167.16;;;1.65;56.15
6899;BME280;3488;42.616;23.350;2023-04-07T01:07:17;62159.97;;;1.58;56.39
6899;BME280;3488;42.616;23.350;2023-04-07T01:09:47;62159.97;;;1.58;56.72
6899;BME280;3488;42.616;23.350;2023-04-07T01:12:23;62163.63;;;1.64;55.48
6899;BME280;3488;42.616;23.350;2023-04-07T01:14:56;62166.63;;;1.64;55.53
6899;BME280;3488;42.616;23.350;2023-04-07T01:17:27;62167.16;;;1.65;55.18
6899;BME280;3488;42.616;23.350;2023-04-07T01:19:57;62172.81;;;1.70;55.14
6899;BME280;3488;42.616;23.350;2023-04-07T01:22:28;62167.69;;;1.65;55.52
6899;BME280;3488;42.616;23.350;2023-04-07T01:25:25;62169.31;;;1.72;55.49
6899;BME280;3488;42.616;23.350;2023-04-07T01:28:05;62174.41;;;1.74;54.81
6899;BME280;3488;42.616;23.350;2023-04-07T01:30:39;62178.56;;;1.81;54.40
6899;BME280;3488;42.616;23.350;2023-04-07T01:33:09;62192.81;;;1.90;54.38
6899;BME280;3488;42.616;23.350;2023-04-07T01:35:38;62187.63;;;1.82;54.17
6899;BME280;3488;42.616;23.350;2023-04-07T01:38:08;62191.75;;;1.86;54.17
6899;BME280;3488;42.616;23.350;2023-04-07T01:40:37;62195.91;;;1.93;53.66
6899;BME280;3488;42.616;23.350;2023-04-07T01:43:05;62198.47;;;1.95;53.04
6899;BME280;3488;42.616;23.350;2023-04-07T01:45:34;62204.13;;;2.01;53.48
6899;BME280;3488;42.616;23.350;2023-04-07T01:48:06;62203.03;;;1.97;53.27
6899;BME280;3488;42.616;23.350;2023-04-07T01:50:33;62206.22;;;2.05;52.98
6899;BME280;3488;42.616;23.350;2023-04-07T01:53:02;62210.28;;;2.07;52.74
6899;BME280;3488;42.616;23.350;2023-04-07T01:55:30;62213.34;;;2.10;52.35
6899;BME280;3488;42.616;23.350;2023-04-07T01:57:57;62218.03;;;2.17;52.65
6899;BME280;3488;42.616;23.350;2023-04-07T02:00:24;62229.72;;;2.23;52.08
6899;BME280;3488;42.616;23.350;2023-04-07T02:02:56;62230.34;;;2.29;52.02
6899;BME280;3488;42.616;23.350;2023-04-07T02:05:27;62230.75;;;2.24;51.85
6899;BME280;3488;42.616;23.350;2023-04-07T02:07:58;62211.31;;;2.08;52.21
6899;BME280;3488;42.616;23.350;2023-04-07T02:10:28;62216.97;;;2.13;52.45
6899;BME280;3488;42.616;23.350;2023-04-07T02:12:59;62214.97;;;2.14;52.21
6899;BME280;3488;42.616;23.350;2023-04-07T02:15:29;62217.47;;;2.14;52.31
6899;BME280;3488;42.616;23.350;2023-04-07T02:17:58;62224.66;;;2.21;52.33
6899;BME280;3488;42.616;23.350;2023-04-07T02:20:28;62209.25;;;2.06;52.36
6899;BME280;3488;42.616;23.350;2023-04-07T02:22:56;62224.16;;;2.20;52.57
6899;BME280;3488;42.616;23.350;2023-04-07T02:25:24;62219.56;;;2.18;52.43
6899;BME280;3488;42.616;23.350;2023-04-07T02:27:52;62219.00;;;2.15;52.19
6899;BME280;3488;42.616;23.350;2023-04-07T02:30:19;62220.56;;;2.17;52.18
6899;BME280;3488;42.616;23.350;2023-04-07T02:32:46;62238.47;;;2.32;52.05
6899;BME280;3488;42.616;23.350;2023-04-07T02:35:14;62235.94;;;2.32;52.10
6899;BME280;3488;42.616;23.350;2023-04-07T02:37:43;62242.63;;;2.38;51.74
6899;BME280;3488;42.616;23.350;2023-04-07T02:40:11;62236.50;;;2.35;51.93
6899;BME280;3488;42.616;23.350;2023-04-07T02:42:38;62239.47;;;2.33;51.77
6899;BME280;3488;42.616;23.350;2023-04-07T02:45:07;62249.25;;;2.43;51.86
6899;BME280;3488;42.616;23.350;2023-04-07T02:47:35;62247.81;;;2.46;51.84
6899;BME280;3488;42.616;23.350;2023-04-07T02:50:03;62255.91;;;2.49;51.90
6899;BME280;3488;42.616;23.350;2023-04-07T02:52:30;62259.06;;;2.55;51.59
6899;BME280;3488;42.616;23.350;2023-04-07T02:54:59;62247.75;;;2.44;51.49
6899;BME280;3488;42.616;23.350;2023-04-07T02:57:26;62252.88;;;2.49;51.66
6899;BME280;3488;42.616;23.350;2023-04-07T02:59:53;62257.53;;;2.53;51.47
6899;BME280;3488;42.616;23.350;2023-04-07T03:02:22;62261.63;;;2.57;51.80
6899;BME280;3488;42.616;23.350;2023-04-07T03:04:50;62253.97;;;2.52;52.32
6899;BME280;3488;42.616;23.350;2023-04-07T03:07:18;62251.88;;;2.48;52.09
6899;BME280;3488;42.616;23.350;2023-04-07T03:09:44;62261.63;;;2.57;52.26
6899;BME280;3488;42.616;23.350;2023-04-07T03:12:13;62268.75;;;2.62;52.45
6899;BME280;3488;42.616;23.350;2023-04-07T03:14:40;62257.47;;;2.51;52.44
6899;BME280;3488;42.616;23.350;2023-04-07T03:17:07;62247.25;;;2.43;52.56
6899;BME280;3488;42.616;23.350;2023-04-07T03:19:35;62261.56;;;2.55;52.95
6899;BME280;3488;42.616;23.350;2023-04-07T03:22:02;62216.88;;;2.11;52.91
6899;BME280;3488;42.616;23.350;2023-04-07T03:24:29;62237.03;;;2.35;52.91
6899;BME280;3488;42.616;23.350;2023-04-07T03:26:56;62229.78;;;2.26;53.01
6899;BME280;3488;42.616;23.350;2023-04-07T03:29:24;62246.31;;;2.47;53.52
6899;BME280;3488;42.616;23.350;2023-04-07T03:31:51;62236.97;;;2.33;54.11
6899;BME280;3488;42.616;23.350;2023-04-07T03:34:19;62253.88;;;2.47;53.74
6899;BME280;3488;42.616;23.350;2023-04-07T03:36:46;62244.63;;;2.38;53.04
6899;BME280;3488;42.616;23.350;2023-04-07T03:39:13;62234.88;;;2.28;53.36
6899;BME280;3488;42.616;23.350;2023-04-07T03:41:41;62239.03;;;2.35;53.21
6899;BME280;3488;42.616;23.350;2023-04-07T03:44:08;62223.69;;;2.22;53.70
6899;BME280;3488;42.616;23.350;2023-04-07T03:46:37;62224.78;;;2.26;54.13
6899;BME280;3488;42.616;23.350;2023-04-07T03:49:04;62226.66;;;2.20;54.10
6899;BME280;3488;42.616;23.350;2023-04-07T03:51:31;62215.41;;;2.12;54.34
6899;BME280;3488;42.616;23.350;2023-04-07T03:53:58;62207.78;;;2.07;54.73
6899;BME280;3488;42.616;23.350;2023-04-07T03:56:26;62194.97;;;1.97;55.80
6899;BME280;3488;42.616;23.350;2023-04-07T03:58:53;62205.59;;;2.00;55.28
6899;BME280;3488;42.616;23.350;2023-04-07T04:01:21;62198.41;;;1.93;55.37
6899;BME280;3488;42.616;23.350;2023-04-07T04:03:49;62205.59;;;2.00;55.38
6899;BME280;3488;42.616;23.350;2023-04-07T04:06:16;62198.00;;;1.97;54.48
6899;BME280;3488;42.616;23.350;2023-04-07T04:08:43;62205.16;;;2.02;54.36
6899;BME280;3488;42.616;23.350;2023-04-07T04:11:10;62200.59;;;2.00;54.44
6899;BME280;3488;42.616;23.350;2023-04-07T04:13:37;62211.75;;;2.06;54.34
6899;BME280;3488;42.616;23.350;2023-04-07T04:16:05;62214.84;;;2.09;54.09
6899;BME280;3488;42.616;23.350;2023-04-07T04:18:33;62222.59;;;2.19;53.43
6899;BME280;3488;42.616;23.350;2023-04-07T04:21:01;62225.69;;;2.22;53.46
6899;BME280;3488;42.616;23.350;2023-04-07T04:23:28;62220.56;;;2.17;53.60
6899;BME280;3488;42.616;23.350;2023-04-07T04:25:56;62207.16;;;2.01;53.15
6899;BME280;3488;42.616;23.350;2023-04-07T04:28:24;62239.03;;;2.35;53.05
6899;BME280;3488;42.616;23.350;2023-04-07T04:30:52;62247.25;;;2.43;52.93
6899;BME280;3488;42.616;23.350;2023-04-07T04:33:19;62253.41;;;2.49;52.63
6899;BME280;3488;42.616;23.350;2023-04-07T04:35:46;62267.22;;;2.60;52.38
6899;BME280;3488;42.616;23.350;2023-04-07T04:38:14;62273.91;;;2.67;52.20
6899;BME280;3488;42.616;23.350;2023-04-07T04:40:41;62264.75;;;2.63;52.18
6899;BME280;3488;42.616;23.350;2023-04-07T04:43:09;62261.69;;;2.60;52.82
6899;BME280;3488;42.616;23.350;2023-04-07T04:45:36;62272.41;;;2.68;52.97
6899;BME280;3488;42.616;23.350;2023-04-07T04:48:03;62282.22;;;2.80;53.40
6899;BME280;3488;42.616;23.350;2023-04-07T04:50:30;62292.38;;;2.85;53.54
6899;BME280;3488;42.616;23.350;2023-04-07T04:52:57;62295.47;;;2.88;52.54
6899;BME280;3488;42.616;23.350;2023-04-07T04:55:25;62300.78;;;3.00;52.16
6899;BME280;3488;42.616;23.350;2023-04-07T04:57:53;62305.31;;;3.00;51.11
6899;BME280;3488;42.616;23.350;2023-04-07T05:00:20;62299.13;;;2.94;52.02
6899;BME280;3488;42.616;23.350;2023-04-07T05:02:47;62280.13;;;2.75;54.49
6899;BME280;3488;42.616;23.350;2023-04-07T05:05:14;62263.19;;;2.59;55.97
6899;BME280;3488;42.616;23.350;2023-04-07T05:07:41;62247.75;;;2.44;57.00
6899;BME280;3488;42.616;23.350;2023-04-07T05:10:08;62261.56;;;2.55;56.92
6899;BME280;3488;42.616;23.350;2023-04-07T05:12:37;62261.06;;;2.54;56.31
6899;BME280;3488;42.616;23.350;2023-04-07T05:15:05;62270.31;;;2.63;56.75
6899;BME280;3488;42.616;23.350;2023-04-07T05:17:33;62286.78;;;2.82;56.51
6899;BME280;3488;42.616;23.350;2023-04-07T05:20:00;62285.81;;;2.83;56.49
6899;BME280;3488;42.616;23.350;2023-04-07T05:22:27;62280.56;;;2.73;56.90
6899;BME280;3488;42.616;23.350;2023-04-07T05:24:54;62299.00;;;2.89;57.45
6899;BME280;3488;42.616;23.350;2023-04-07T05:27:22;62300.22;;;2.97;57.71
6899;BME280;3488;42.616;23.350;2023-04-07T05:29:50;62280.13;;;2.75;57.00
6899;BME280;3488;42.616;23.350;2023-04-07T05:32:17;62301.69;;;2.96;57.89
6899;BME280;3488;42.616;23.350;2023-04-07T05:34:44;62344.94;;;3.41;57.84
6899;BME280;3488;42.616;23.350;2023-04-07T05:37:12;62380.84;;;3.74;57.89
6899;BME280;3488;42.616;23.350;2023-04-07T05:39:39;62388.63;;;3.84;57.73
6899;BME280;3488;42.616;23.350;2023-04-07T05:42:06;62396.75;;;3.87;57.45
6899;BME280;3488;42.616;23.350;2023-04-07T05:44:33;62404.91;;;3.92;56.83
6899;BME280;3488;42.616;23.350;2023-04-07T05:47:02;62440.47;;;4.29;56.69
6899;BME280;3488;42.616;23.350;2023-04-07T05:49:33;62477.56;;;4.68;56.23
6899;BME280;3488;42.616;23.350;2023-04-07T05:52:00;62487.84;;;4.78;55.38
6899;BME280;3488;42.616;23.350;2023-04-07T05:54:28;62515.16;;;5.05;54.64
6899;BME280;3488;42.616;23.350;2023-04-07T05:56:55;62517.16;;;5.04;53.89
6899;BME280;3488;42.616;23.350;2023-04-07T05:59:23;62488.44;;;4.81;54.53
6899;BME280;3488;42.616;23.350;2023-04-07T06:01:50;62454.41;;;4.45;55.41
6899;BME280;3488;42.616;23.350;2023-04-07T06:04:19;62456.94;;;4.45;55.93
6899;BME280;3488;42.616;23.350;2023-04-07T06:06:46;62466.19;;;4.54;55.68
6899;BME280;3488;42.616;23.350;2023-04-07T06:09:13;62472.88;;;4.61;56.42
6899;BME280;3488;42.616;23.350;2023-04-07T06:11:40;62469.81;;;4.58;56.44
6899;BME280;3488;42.616;23.350;2023-04-07T06:14:08;62474.50;;;4.65;56.45
6899;BME280;3488;42.616;23.350;2023-04-07T06:16:35;62493.97;;;4.82;56.88
6899;BME280;3488;42.616;23.350;2023-04-07T06:19:02;62496.09;;;4.86;56.13
6899;BME280;3488;42.616;23.350;2023-04-07T06:21:30;62505.88;;;4.96;56.13
6899;BME280;3488;42.616;23.350;2023-04-07T06:23:57;62495.06;;;4.85;55.82
6899;BME280;3488;42.616;23.350;2023-04-07T06:26:24;62519.28;;;5.09;55.53
6899;BME280;3488;42.616;23.350;2023-04-07T06:28:52;62537.31;;;5.26;54.83
6899;BME280;3488;42.616;23.350;2023-04-07T06:31:19;62513.56;;;5.01;54.83
6899;BME280;3488;42.616;23.350;2023-04-07T06:33:46;62526.44;;;5.13;55.79
6899;BME280;3488;42.616;23.350;2023-04-07T06:36:13;62516.19;;;5.06;53.73
6899;BME280;3488;42.616;23.350;2023-04-07T06:38:42;62519.84;;;5.12;52.93
6899;BME280;3488;42.616;23.350;2023-04-07T06:41:09;62550.03;;;5.31;53.20
6899;BME280;3488;42.616;23.350;2023-04-07T06:43:41;62566.66;;;5.55;52.83
6899;BME280;3488;42.616;23.350;2023-04-07T06:46:08;62554.81;;;5.43;52.50
6899;BME280;3488;42.616;23.350;2023-04-07T06:48:35;62527.50;;;5.17;53.13
6899;BME280;3488;42.616;23.350;2023-04-07T06:51:02;62549.16;;;5.38;53.03
6899;BME280;3488;42.616;23.350;2023-04-07T06:53:30;62553.78;;;5.42;53.60
6899;BME280;3488;42.616;23.350;2023-04-07T06:56:05;62560.94;;;5.47;52.72
6899;BME280;3488;42.616;23.350;2023-04-07T06:58:35;62554.81;;;5.43;51.53
6899;BME280;3488;42.616;23.350;2023-04-07T07:01:03;62523.47;;;5.18;52.60
6899;BME280;3488;42.616;23.350;2023-04-07T07:03:30;62528.03;;;5.17;52.90
6899;BME280;3488;42.616;23.350;2023-04-07T07:05:58;62547.03;;;5.33;51.82
6899;BME280;3488;42.616;23.350;2023-04-07T07:08:28;62553.81;;;5.45;50.15
6899;BME280;3488;42.616;23.350;2023-04-07T07:10:55;62596.44;;;5.79;48.54
6899;BME280;3488;42.616;23.350;2023-04-07T07:13:25;62625.97;;;6.15;47.50
6899;BME280;3488;42.616;23.350;2023-04-07T07:15:53;62638.28;;;6.25;47.00
6899;BME280;3488;42.616;23.350;2023-04-07T07:18:20;62645.47;;;6.29;46.67
6899;BME280;3488;42.616;23.350;2023-04-07T07:20:47;62649.63;;;6.36;44.75
6899;BME280;3488;42.616;23.350;2023-04-07T07:23:15;62640.88;;;6.27;45.48
6899;BME280;3488;42.616;23.350;2023-04-07T07:25:45;62616.69;;;6.06;45.63
6899;BME280;3488;42.616;23.350;2023-04-07T07:28:17;62547.53;;;5.34;46.79
6899;BME280;3488;42.616;23.350;2023-04-07T07:30:54;62545.63;;;5.39;47.39
6899;BME280;3488;42.616;23.350;2023-04-07T07:33:32;62556.84;;;5.45;46.69
6899;BME280;3488;42.616;23.350;2023-04-07T07:36:09;62543.00;;;5.34;47.16
6899;BME280;3488;42.616;23.350;2023-04-07T07:38:39;62530.03;;;5.17;46.96
6899;BME280;3488;42.616;23.350;2023-04-07T07:41:06;62522.81;;;5.10;47.92
6899;BME280;3488;42.616;23.350;2023-04-07T07:43:33;62580.97;;;5.64;46.97
6899;BME280;3488;42.616;23.350;2023-04-07T07:46:03;62602.31;;;5.95;45.91
6899;BME280;3488;42.616;23.350;2023-04-07T07:48:30;62620.25;;;6.07;45.68
6899;BME280;3488;42.616;23.350;2023-04-07T07:50:57;62641.88;;;6.28;45.78
6899;BME280;3488;42.616;23.350;2023-04-07T07:53:24;62668.69;;;6.54;44.81
6899;BME280;3488;42.616;23.350;2023-04-07T07:55:51;62686.75;;;6.72;44.05
6899;BME280;3488;42.616;23.350;2023-04-07T07:58:20;62710.47;;;6.95;44.21
6899;BME280;3488;42.616;23.350;2023-04-07T08:00:47;62744.47;;;7.26;43.63
6899;BME280;3488;42.616;23.350;2023-04-07T08:03:15;62762.03;;;7.43;43.25
6899;BME280;3488;42.616;23.350;2023-04-07T08:05:46;62808.50;;;7.90;41.97
6899;BME280;3488;42.616;23.350;2023-04-07T08:08:14;62873.53;;;8.51;40.61
6899;BME280;3488;42.616;23.350;2023-04-07T08:10:41;62877.13;;;8.52;41.30
6899;BME280;3488;42.616;23.350;2023-04-07T08:13:08;62872.63;;;8.55;40.41
6899;BME280;3488;42.616;23.350;2023-04-07T08:15:35;62847.25;;;8.28;40.16
6899;BME280;3488;42.616;23.350;2023-04-07T08:18:02;62850.88;;;8.32;40.10
6899;BME280;3488;42.616;23.350;2023-04-07T08:20:32;62865.28;;;8.43;40.43
6899;BME280;3488;42.616;23.350;2023-04-07T08:23:00;62867.31;;;8.43;39.76
6899;BME280;3488;42.616;23.350;2023-04-07T08:25:28;62870.06;;;8.55;39.65
6899;BME280;3488;42.616;23.350;2023-04-07T08:27:55;62881.34;;;8.61;39.17
6899;BME280;3488;42.616;23.350;2023-04-07T08:30:22;62884.50;;;8.67;39.05
6899;BME280;3488;42.616;23.350;2023-04-07T08:32:50;62853.50;;;8.37;39.41
6899;BME280;3488;42.616;23.350;2023-04-07T08:35:17;62856.00;;;8.34;39.29
6899;BME280;3488;42.616;23.350;2023-04-07T08:37:45;62877.25;;;8.60;38.77
6899;BME280;3488;42.616;23.350;2023-04-07T08:40:13;62874.63;;;8.55;39.90
6899;BME280;3488;42.616;23.350;2023-04-07T08:42:41;62802.25;;;7.82;40.61
6899;BME280;3488;42.616;23.350;2023-04-07T08:45:10;62802.25;;;7.82;41.14
6899;BME280;3488;42.616;23.350;2023-04-07T08:47:39;62768.25;;;7.51;40.91
6899;BME280;3488;42.616;23.350;2023-04-07T08:50:10;62836.88;;;8.15;40.91
6899;BME280;3488;42.616;23.350;2023-04-07T08:52:42;62868.44;;;8.49;40.46
6899;BME280;3488;42.616;23.350;2023-04-07T08:55:12;62927.22;;;9.01;39.42
6899;BME280;3488;42.616;23.350;2023-04-07T08:57:40;62928.84;;;9.05;39.74
6899;BME280;3488;42.616;23.350;2023-04-07T09:00:08;62915.97;;;8.95;39.78
6899;BME280;3488;42.616;23.350;2023-04-07T09:02:37;62858.06;;;8.36;40.80
6899;BME280;3488;42.616;23.350;2023-04-07T09:05:06;62853.41;;;8.32;40.99
6899;BME280;3488;42.616;23.350;2023-04-07T09:07:37;62835.78;;;8.12;41.39
6899;BME280;3488;42.616;23.350;2023-04-07T09:10:08;62854.97;;;8.33;41.16
6899;BME280;3488;42.616;23.350;2023-04-07T09:12:41;62856.50;;;8.35;40.67
6899;BME280;3488;42.616;23.350;2023-04-07T09:15:09;62879.22;;;8.57;40.35
6899;BME280;3488;42.616;23.350;2023-04-07T09:17:36;62901.97;;;8.79;40.36
6899;BME280;3488;42.616;23.350;2023-04-07T09:20:03;62938.66;;;9.14;39.90
6899;BME280;3488;42.616;23.350;2023-04-07T09:22:35;62960.41;;;9.38;39.07
6899;BME280;3488;42.616;23.350;2023-04-07T09:25:12;62992.88;;;9.65;39.31
6899;BME280;3488;42.616;23.350;2023-04-07T09:27:55;62987.78;;;9.65;37.72
6899;BME280;3488;42.616;23.350;2023-04-07T09:30:23;62963.50;;;9.41;37.53
6899;BME280;3488;42.616;23.350;2023-04-07T09:32:50;62995.41;;;9.65;38.23
6899;BME280;3488;42.616;23.350;2023-04-07T09:35:18;63010.03;;;9.86;38.35
6899;BME280;3488;42.616;23.350;2023-04-07T09:38:00;62990.34;;;9.65;37.69
6899;BME280;3488;42.616;23.350;2023-04-07T09:40:28;62945.41;;;9.23;38.45
6899;BME280;3488;42.616;23.350;2023-04-07T09:42:56;62931.38;;;9.05;39.30
6899;BME280;3488;42.616;23.350;2023-04-07T09:45:28;62926.72;;;9.00;40.21
6899;BME280;3488;42.616;23.350;2023-04-07T09:47:58;62968.63;;;9.44;39.21
6899;BME280;3488;42.616;23.350;2023-04-07T09:50:33;62967.56;;;9.40;39.08
6899;BME280;3488;42.616;23.350;2023-04-07T09:53:01;62927.84;;;9.06;39.25
6899;BME280;3488;42.616;23.350;2023-04-07T09:55:29;62908.16;;;8.85;40.57
6899;BME280;3488;42.616;23.350;2023-04-07T09:58:00;62889.56;;;8.67;40.61
6899;BME280;3488;42.616;23.350;2023-04-07T10:00:29;62887.00;;;8.64;41.29
6899;BME280;3488;42.616;23.350;2023-04-07T10:02:56;62878.75;;;8.59;41.18
6899;BME280;3488;42.616;23.350;2023-04-07T10:05:24;62876.13;;;8.54;40.74
6899;BME280;3488;42.616;23.350;2023-04-07T10:07:52;62808.50;;;7.90;42.54
6899;BME280;3488;42.616;23.350;2023-04-07T10:10:19;62849.28;;;8.28;41.49
6899;BME280;3488;42.616;23.350;2023-04-07T10:12:48;62868.38;;;8.46;41.72
6899;BME280;3488;42.616;23.350;2023-04-07T10:15:16;62837.84;;;8.14;41.42
6899;BME280;3488;42.616;23.350;2023-04-07T10:17:45;62805.38;;;7.85;42.83
6899;BME280;3488;42.616;23.350;2023-04-07T10:20:16;62802.88;;;7.87;42.85
6899;BME280;3488;42.616;23.350;2023-04-07T10:22:47;62816.72;;;7.96;42.27
6899;BME280;3488;42.616;23.350;2023-04-07T10:25:17;62790.31;;;7.65;43.03
6899;BME280;3488;42.616;23.350;2023-04-07T10:27:48;62776.00;;;7.59;42.80
6899;BME280;3488;42.616;23.350;2023-04-07T10:30:22;62810.56;;;7.92;42.93
6899;BME280;3488;42.616;23.350;2023-04-07T10:32:52;62832.81;;;8.16;42.37
6899;BME280;3488;42.616;23.350;2023-04-07T10:35:19;62792.94;;;7.70;42.89
6899;BME280;3488;42.616;23.350;2023-04-07T10:38:09;62819.81;;;7.99;43.29
6899;BME280;3488;42.616;23.350;2023-04-07T10:40:38;62863.69;;;8.39;42.19
6899;BME280;3488;42.616;23.350;2023-04-07T10:43:06;62855.47;;;8.34;42.02
6899;BME280;3488;42.616;23.350;2023-04-07T10:45:56;62878.69;;;8.54;42.10
6899;BME280;3488;42.616;23.350;2023-04-07T10:48:27;62903.03;;;8.82;41.18
6899;BME280;3488;42.616;23.350;2023-04-07T10:51:18;62900.94;;;8.78;41.36
6899;BME280;3488;42.616;23.350;2023-04-07T10:57:13;62909.28;;;8.91;39.76
6899;BME280;3488;42.616;23.350;2023-04-07T11:00:14;62941.75;;;9.17;40.23
6899;BME280;3488;42.616;23.350;2023-04-07T11:02:45;62968.63;;;9.44;39.97
6899;BME280;3488;42.616;23.350;2023-04-07T11:05:20;62977.50;;;9.57;39.79
6899;BME280;3488;42.616;23.350;2023-04-07T11:07:51;62995.00;;;9.69;39.28
6899;BME280;3488;42.616;23.350;2023-04-07T11:10:22;62947.94;;;9.23;39.22
6899;BME280;3488;42.616;23.350;2023-04-07T11:13:03;62873.03;;;8.51;43.42
6899;BME280;3488;42.616;23.350;2023-04-07T11:15:30;62832.72;;;8.11;44.83
6899;BME280;3488;42.616;23.350;2023-04-07T11:18:26;62817.28;;;7.99;44.67
6899;BME280;3488;42.616;23.350;2023-04-07T11:20:54;62767.19;;;7.48;46.25
6899;BME280;3488;42.616;23.350;2023-04-07T11:23:23;62711.56;;;6.98;47.32
6899;BME280;3488;42.616;23.350;2023-04-07T11:25:58;62727.34;;;7.04;46.30
6899;BME280;3488;42.616;23.350;2023-04-07T11:28:25;62699.66;;;6.84;47.28
6899;BME280;3488;42.616;23.350;2023-04-07T11:30:53;62676.91;;;6.60;48.44
6899;BME280;3488;42.616;23.350;2023-04-07T11:33:22;62713.56;;;6.98;48.20
6899;BME280;3488;42.616;23.350;2023-04-07T11:35:54;62719.72;;;7.01;47.37
6899;BME280;3488;42.616;23.350;2023-04-07T11:38:24;62707.84;;;6.90;48.47
6899;BME280;3488;42.616;23.350;2023-04-07T11:40:52;62738.88;;;7.25;48.02
6899;BME280;3488;42.616;23.350;2023-04-07T11:43:21;62744.94;;;7.24;46.81
6899;BME280;3488;42.616;23.350;2023-04-07T11:46:08;62750.72;;;7.34;47.15
6899;BME280;3488;42.616;23.350;2023-04-07T11:48:37;62787.88;;;7.70;46.19
6899;BME280;3488;42.616;23.350;2023-04-07T11:51:14;62766.66;;;7.47;47.01
6899;BME280;3488;42.616;23.350;2023-04-07T11:53:42;62735.25;;;7.19;47.08
6899;BME280;3488;42.616;23.350;2023-04-07T11:56:11;62767.22;;;7.50;46.70
6899;BME280;3488;42.616;23.350;2023-04-07T11:58:46;62778.00;;;7.58;47.35
6899;BME280;3488;42.616;23.350;2023-04-07T12:01:13;62741.84;;;7.21;48.40
6899;BME280;3488;42.616;23.350;2023-04-07T12:03:54;62703.25;;;6.88;49.62
6899;BME280;3488;42.616;23.350;2023-04-07T12:06:28;62718.69;;;7.00;49.55
6899;BME280;3488;42.616;23.350;2023-04-07T12:08:59;62749.16;;;7.33;49.21
6899;BME280;3488;42.616;23.350;2023-04-07T12:11:26;62748.59;;;7.30;49.15
6899;BME280;3488;42.616;23.350;2023-04-07T12:13:54;62751.22;;;7.35;49.64
6899;BME280;3488;42.616;23.350;2023-04-07T12:16:22;62718.16;;;7.00;50.21
6899;BME280;3488;42.616;23.350;2023-04-07T12:18:49;62717.72;;;7.02;50.15
6899;BME280;3488;42.616;23.350;2023-04-07T12:21:17;62762.03;;;7.43;49.13
6899;BME280;3488;42.616;23.350;2023-04-07T12:23:46;62744.47;;;7.26;50.00
6899;BME280;3488;42.616;23.350;2023-04-07T12:26:14;62772.34;;;7.53;49.39
6899;BME280;3488;42.616;23.350;2023-04-07T12:28:41;62788.34;;;7.68;49.49
6899;BME280;3488;42.616;23.350;2023-04-07T12:31:08;62758.50;;;7.44;48.69
6899;BME280;3488;42.616;23.350;2023-04-07T12:33:35;62759.47;;;7.43;49.22
6899;BME280;3488;42.616;23.350;2023-04-07T12:36:03;62794.53;;;7.74;48.40
6899;BME280;3488;42.616;23.350;2023-04-07T12:38:31;62806.47;;;7.88;47.58
6899;BME280;3488;42.616;23.350;2023-04-07T12:40:59;62820.41;;;8.02;48.19
6899;BME280;3488;42.616;23.350;2023-04-07T12:43:28;62839.50;;;8.20;47.71
6899;BME280;3488;42.616;23.350;2023-04-07T12:45:55;62894.78;;;8.74;46.10
6899;BME280;3488;42.616;23.350;2023-04-07T12:48:23;62831.75;;;8.13;47.19
6899;BME280;3488;42.616;23.350;2023-04-07T12:50:52;62858.00;;;8.34;47.48
6899;BME280;3488;42.616;23.350;2023-04-07T12:53:19;62875.66;;;8.56;46.45
6899;BME280;3488;42.616;23.350;2023-04-07T12:55:46;62869.03;;;8.54;46.37
6899;BME280;3488;42.616;23.350;2023-04-07T12:58:15;62827.09;;;8.08;47.54
6899;BME280;3488;42.616;23.350;2023-04-07T13:00:43;62859.09;;;8.37;46.42
6899;BME280;3488;42.616;23.350;2023-04-07T13:03:11;62894.22;;;8.71;45.58
6899;BME280;3488;42.616;23.350;2023-04-07T13:05:39;62933.44;;;9.07;45.21
6899;BME280;3488;42.616;23.350;2023-04-07T13:08:06;62881.78;;;8.57;45.89
6899;BME280;3488;42.616;23.350;2023-04-07T13:10:33;62800.78;;;7.83;47.87
6899;BME280;3488;42.616;23.350;2023-04-07T13:13:00;62756.38;;;7.40;48.50
6899;BME280;3488;42.616;23.350;2023-04-07T13:15:29;62759.94;;;7.41;49.26
6899;BME280;3488;42.616;23.350;2023-04-07T13:17:59;62718.69;;;7.00;50.52
6899;BME280;3488;42.616;23.350;2023-04-07T13:20:26;62717.72;;;7.02;50.22
6899;BME280;3488;42.616;23.350;2023-04-07T13:22:54;62742.31;;;7.19;50.50
6899;BME280;3488;42.616;23.350;2023-04-07T13:25:21;62776.94;;;7.55;49.61
6899;BME280;3488;42.616;23.350;2023-04-07T13:27:48;62794.53;;;7.74;49.33
6899;BME280;3488;42.616;23.350;2023-04-07T13:30:16;62833.78;;;8.12;48.24
6899;BME280;3488;42.616;23.350;2023-04-07T13:32:45;62773.94;;;7.57;49.14
6899;BME280;3488;42.616;23.350;2023-04-07T13:35:14;62771.88;;;7.55;50.20